createdAt,value
2022-12-01T00:00:12.920Z,9.71
2022-12-01T00:03:35.841Z,10.67
2022-12-01T00:06:38.704Z,9.93
2022-12-01T00:09:59.412Z,11.56
2022-12-01T00:13:04.943Z,12.68
2022-12-01T00:16:16.104Z,13.97
2022-12-01T00:19:19.031Z,12.84
2022-12-01T00:22:21.106Z,10.71
2022-12-01T00:25:23.829Z,10.54
2022-12-01T00:28:25.978Z,11.00
2022-12-01T00:31:28.762Z,10.47
2022-12-01T00:34:31.127Z,10.02
2022-12-01T00:37:36.716Z,8.69
2022-12-01T00:40:39.849Z,9.57
2022-12-01T00:43:42.654Z,10.44
2022-12-01T00:46:44.735Z,11.12
2022-12-01T00:49:47.879Z,11.45
2022-12-01T00:52:50.026Z,13.78
2022-12-01T00:55:54.372Z,13.70
2022-12-01T00:58:56.974Z,12.41
2022-12-01T01:01:59.497Z,12.77
2022-12-01T01:05:01.525Z,14.55
2022-12-01T01:08:08.347Z,14.00
2022-12-01T01:11:10.815Z,12.01
2022-12-01T01:14:13.547Z,11.55
2022-12-01T01:17:15.465Z,12.13
2022-12-01T01:20:17.958Z,12.16
2022-12-01T01:23:20.178Z,10.91
2022-12-01T01:26:28.689Z,10.98
2022-12-01T01:29:31.243Z,10.70
2022-12-01T01:32:36.033Z,10.44
2022-12-01T01:35:38.439Z,9.69
2022-12-01T01:38:41.643Z,10.78
2022-12-01T01:41:43.656Z,10.77
2022-12-01T01:44:54.526Z,10.75
2022-12-01T01:47:59.966Z,10.60
2022-12-01T01:51:03.406Z,11.28
2022-12-01T01:54:15.987Z,11.00
2022-12-01T01:57:25.750Z,12.33
2022-12-01T02:00:28.080Z,11.80
2022-12-01T02:03:37.265Z,13.80
2022-12-01T02:06:39.874Z,14.71
2022-12-01T02:09:42.650Z,15.64
2022-12-01T02:13:18.733Z,15.84
2022-12-01T02:16:27.964Z,15.97
2022-12-01T02:20:24.198Z,16.01
2022-12-01T02:23:57.344Z,15.80
2022-12-01T02:27:09.543Z,15.93
2022-12-01T02:30:27.862Z,16.05
2022-12-01T02:33:38.977Z,15.03
2022-12-01T02:36:55.949Z,12.92
2022-12-01T02:40:15.489Z,13.25
2022-12-01T02:43:54.089Z,13.59
2022-12-01T02:47:15.744Z,13.18
2022-12-01T02:50:19.690Z,13.30
2022-12-01T02:53:22.879Z,12.88
2022-12-01T02:56:27.420Z,13.04
2022-12-01T02:59:29.441Z,12.37
2022-12-01T03:02:54.345Z,12.57
2022-12-01T03:06:08.718Z,13.43
2022-12-01T03:09:33.654Z,14.08
2022-12-01T03:12:50.251Z,15.14
2022-12-01T03:16:12.811Z,15.00
2022-12-01T03:19:27.195Z,15.10
2022-12-01T03:22:36.646Z,14.08
2022-12-01T03:25:42.234Z,11.87
2022-12-01T03:28:50.545Z,11.22
2022-12-01T03:31:59.383Z,11.05
2022-12-01T03:35:11.069Z,12.60
2022-12-01T03:38:19.054Z,12.74
2022-12-01T03:41:26.492Z,13.26
2022-12-01T03:44:42.069Z,11.38
2022-12-01T03:47:44.960Z,14.00
2022-12-01T03:50:57.019Z,14.93
2022-12-01T03:54:03.300Z,15.74
2022-12-01T03:57:11.200Z,15.85
2022-12-01T04:00:17.280Z,15.44
2022-12-01T04:03:24.844Z,16.01
2022-12-01T04:06:27.914Z,16.38
2022-12-01T04:09:30.208Z,16.53
2022-12-01T04:12:33.974Z,15.87
2022-12-01T04:16:03.517Z,8.72
2022-12-01T04:19:06.520Z,11.19
2022-12-01T04:22:08.589Z,11.89
2022-12-01T04:25:12.034Z,9.59
2022-12-01T04:28:14.414Z,7.78
2022-12-01T04:31:17.064Z,8.01
2022-12-01T04:34:19.155Z,9.16
2022-12-01T04:37:21.933Z,10.22
2022-12-01T04:40:24.323Z,9.37
2022-12-01T04:43:27.832Z,9.45
2022-12-01T04:46:31.269Z,10.05
2022-12-01T04:49:35.025Z,9.95
2022-12-01T04:52:38.415Z,10.02
2022-12-01T04:55:40.914Z,9.69
2022-12-01T04:58:43.322Z,9.31
2022-12-01T05:01:48.686Z,11.00
2022-12-01T05:04:50.983Z,12.21
2022-12-01T05:07:53.603Z,13.57
2022-12-01T05:10:57.183Z,14.20
2022-12-01T05:13:59.910Z,14.86
2022-12-01T05:17:02.638Z,14.75
2022-12-01T05:20:26.637Z,13.83
2022-12-01T05:23:31.690Z,12.26
2022-12-01T05:26:34.539Z,11.22
2022-12-01T05:29:36.753Z,12.01
2022-12-01T05:32:39.260Z,13.35
2022-12-01T05:35:41.658Z,14.22
2022-12-01T05:38:46.009Z,14.71
2022-12-01T05:41:49.077Z,14.85
2022-12-01T05:44:52.052Z,15.04
2022-12-01T05:47:59.071Z,14.27
2022-12-01T05:51:11.303Z,13.50
2022-12-01T05:54:13.514Z,13.08
2022-12-01T05:57:16.864Z,12.50
2022-12-01T06:00:19.373Z,11.52
2022-12-01T06:03:23.532Z,11.46
2022-12-01T06:06:26.206Z,11.05
2022-12-01T06:09:28.629Z,11.31
2022-12-01T06:12:30.939Z,11.17
2022-12-01T06:15:33.328Z,12.89
2022-12-01T06:18:38.049Z,13.70
2022-12-01T06:21:42.985Z,13.55
2022-12-01T06:24:47.509Z,13.29
2022-12-01T06:27:50.225Z,13.35
2022-12-01T06:30:55.424Z,13.47
2022-12-01T06:34:01.012Z,13.71
2022-12-01T06:37:03.295Z,13.15
2022-12-01T06:40:07.086Z,12.03
2022-12-01T06:43:09.598Z,11.31
2022-12-01T06:46:12.571Z,10.63
2022-12-01T06:49:15.058Z,10.61
2022-12-01T06:52:17.500Z,11.03
2022-12-01T06:55:20.288Z,11.85
2022-12-01T06:58:22.721Z,13.27
2022-12-01T07:01:25.629Z,13.35
2022-12-01T07:04:28.279Z,14.21
2022-12-01T07:07:31.311Z,14.61
2022-12-01T07:10:33.838Z,14.25
2022-12-01T07:13:37.502Z,14.34
2022-12-01T07:16:40.019Z,15.00
2022-12-01T07:19:42.295Z,14.99
2022-12-01T07:22:45.002Z,15.47
2022-12-01T07:25:47.607Z,15.70
2022-12-01T07:28:50.807Z,15.80
2022-12-01T07:31:53.817Z,15.78
2022-12-01T07:34:56.256Z,15.97
2022-12-01T07:37:58.830Z,16.14
2022-12-01T07:41:08.572Z,15.87
2022-12-01T07:44:12.190Z,15.29
2022-12-01T07:47:14.970Z,14.92
2022-12-01T07:50:17.131Z,13.25
2022-12-01T07:53:19.677Z,12.61
2022-12-01T07:56:23.343Z,13.40
2022-12-01T07:59:25.795Z,14.10
2022-12-01T08:02:28.289Z,14.92
2022-12-01T08:05:30.859Z,15.03
2022-12-01T08:08:35.127Z,14.55
2022-12-01T08:11:37.505Z,15.57
2022-12-01T08:14:40.890Z,15.71
2022-12-01T08:17:43.617Z,16.00
2022-12-01T08:20:46.052Z,16.42
2022-12-01T08:23:52.409Z,16.62
2022-12-01T08:26:54.635Z,16.42
2022-12-01T08:29:57.164Z,16.09
2022-12-01T08:33:00.602Z,16.42
2022-12-01T08:36:05.382Z,14.95
2022-12-01T08:39:08.654Z,13.01
2022-12-01T08:42:11.724Z,12.07
2022-12-01T08:45:15.701Z,13.76
2022-12-01T08:48:21.720Z,13.69
2022-12-01T08:51:25.074Z,14.81
2022-12-01T08:54:29.420Z,14.91
2022-12-01T08:57:33.175Z,15.14
2022-12-01T09:00:35.762Z,15.09
2022-12-01T09:03:41.148Z,14.44
2022-12-01T09:06:51.203Z,14.49
2022-12-01T09:09:53.754Z,14.37
2022-12-01T09:12:58.046Z,14.31
2022-12-01T09:16:09.003Z,13.56
2022-12-01T09:19:13.432Z,13.52
2022-12-01T09:22:16.249Z,13.49
2022-12-01T09:25:19.070Z,13.05
2022-12-01T09:28:21.726Z,13.09
2022-12-01T09:31:24.669Z,13.50
2022-12-01T09:34:29.163Z,13.16
2022-12-01T09:37:32.759Z,13.25
2022-12-01T09:40:41.126Z,12.48
2022-12-01T09:43:52.237Z,11.43
2022-12-01T09:47:03.510Z,11.04
2022-12-01T09:50:09.880Z,11.82
2022-12-01T09:53:21.506Z,11.75
2022-12-01T09:56:26.329Z,11.96
2022-12-01T09:59:34.453Z,11.72
2022-12-01T10:02:42.331Z,12.04
2022-12-01T10:06:25.152Z,13.46
2022-12-01T10:09:34.621Z,15.16
2022-12-01T10:12:37.240Z,15.64
2022-12-01T10:16:00.864Z,14.99
2022-12-01T10:19:18.272Z,15.42
2022-12-01T10:22:32.930Z,16.24
2022-12-01T10:25:53.376Z,16.38
2022-12-01T10:29:11.420Z,14.58
2022-12-01T10:32:25.875Z,13.84
2022-12-01T10:35:36.304Z,13.23
2022-12-01T10:38:39.378Z,13.97
2022-12-01T10:41:42.151Z,12.65
2022-12-01T10:44:44.951Z,12.89
2022-12-01T10:48:11.244Z,14.25
2022-12-01T10:51:17.583Z,12.21
2022-12-01T10:54:21.438Z,12.75
2022-12-01T10:57:23.900Z,15.12
2022-12-01T11:00:58.607Z,15.81
2022-12-01T11:04:02.736Z,16.32
2022-12-01T11:07:05.342Z,16.79
2022-12-01T11:10:17.002Z,15.67
2022-12-01T11:13:31.352Z,14.68
2022-12-01T11:16:44.296Z,14.21
2022-12-01T11:19:46.923Z,15.68
2022-12-01T11:22:49.128Z,15.61
2022-12-01T11:26:13.899Z,15.58
2022-12-01T11:29:39.012Z,15.18
2022-12-01T11:32:56.180Z,16.15
2022-12-01T11:35:58.788Z,16.87
2022-12-01T11:39:08.092Z,16.69
2022-12-01T11:42:13.908Z,17.31
2022-12-01T11:45:22.552Z,17.51
2022-12-01T11:48:36.871Z,17.55
2022-12-01T11:51:39.603Z,17.64
2022-12-01T11:54:56.032Z,17.95
2022-12-01T11:58:04.165Z,18.01
2022-12-01T12:01:22.170Z,18.15
2022-12-01T12:04:37.509Z,17.89
2022-12-01T12:07:58.498Z,17.31
2022-12-01T12:11:12.292Z,17.75
2022-12-01T12:14:29.453Z,17.82
2022-12-01T12:18:02.103Z,17.89
2022-12-01T12:21:33.635Z,17.64
2022-12-01T12:25:21.726Z,17.48
2022-12-01T12:28:47.088Z,17.34
2022-12-01T12:32:10.522Z,17.57
2022-12-01T12:35:39.509Z,17.48
2022-12-01T12:39:13.568Z,17.58
2022-12-01T12:42:21.801Z,17.68
2022-12-01T12:46:00.894Z,17.57
2022-12-01T12:49:22.173Z,17.81
2022-12-01T12:52:34.357Z,17.88
2022-12-01T12:55:44.756Z,17.63
2022-12-01T12:58:55.852Z,17.71
2022-12-01T13:02:21.009Z,17.82
2022-12-01T13:05:26.635Z,17.70
2022-12-01T13:08:44.366Z,17.64
2022-12-01T13:12:01.637Z,17.23
2022-12-01T13:15:14.321Z,17.26
2022-12-01T13:18:45.881Z,17.28
2022-12-01T13:21:50.856Z,15.58
2022-12-01T13:24:54.190Z,16.45
2022-12-01T13:27:59.250Z,16.21
2022-12-01T13:31:14.162Z,16.97
2022-12-01T13:34:36.801Z,16.62
2022-12-01T13:37:39.437Z,17.04
2022-12-01T13:40:41.725Z,17.23
2022-12-01T13:44:01.669Z,17.53
2022-12-01T13:47:05.921Z,17.75
2022-12-01T13:50:39.099Z,17.99
2022-12-01T13:54:25.848Z,18.18
2022-12-01T13:57:32.047Z,18.24
2022-12-01T14:00:35.251Z,18.29
2022-12-01T14:03:40.241Z,18.29
2022-12-01T14:06:51.479Z,18.32
2022-12-01T14:09:58.344Z,18.40
2022-12-01T14:13:05.308Z,18.49
2022-12-01T14:16:08.759Z,18.53
2022-12-01T14:19:29.740Z,18.57
2022-12-01T14:22:32.446Z,18.57
2022-12-01T14:25:34.734Z,18.63
2022-12-01T14:28:56.253Z,18.67
2022-12-01T14:32:02.066Z,18.70
2022-12-01T14:35:12.114Z,18.67
2022-12-01T14:38:14.863Z,18.66
2022-12-01T14:41:27.321Z,18.61
2022-12-01T14:44:36.039Z,18.57
2022-12-01T14:47:47.748Z,18.55
2022-12-01T14:50:54.107Z,18.53
2022-12-01T14:53:58.124Z,18.47
2022-12-01T14:57:07.417Z,18.43
2022-12-01T15:00:16.795Z,18.39
2022-12-01T15:03:19.357Z,18.32
2022-12-01T15:06:28.488Z,18.29
2022-12-01T15:09:34.014Z,18.26
2022-12-01T15:12:37.841Z,18.33
2022-12-01T15:15:52.125Z,18.42
2022-12-01T15:18:56.130Z,18.49
2022-12-01T15:22:03.983Z,18.50
2022-12-01T15:25:16.280Z,18.46
2022-12-01T15:28:23.073Z,18.52
2022-12-01T15:31:26.809Z,18.45
2022-12-01T15:34:34.266Z,18.55
2022-12-01T15:37:44.221Z,18.60
2022-12-01T15:44:34.283Z,18.61
2022-12-01T15:47:56.420Z,18.67
2022-12-01T15:51:17.789Z,18.74
2022-12-01T15:54:24.973Z,18.76
2022-12-01T15:57:28.468Z,18.77
2022-12-01T16:00:31.228Z,18.79
2022-12-01T16:04:05.789Z,18.79
2022-12-01T16:07:11.199Z,18.80
2022-12-01T16:10:36.058Z,18.80
2022-12-01T16:13:57.784Z,18.89
2022-12-01T16:17:01.620Z,18.90
2022-12-01T16:20:23.242Z,18.83
2022-12-01T16:23:27.617Z,18.69
2022-12-01T16:26:32.057Z,18.43
2022-12-01T16:29:55.262Z,18.42
2022-12-01T16:33:07.415Z,18.37
2022-12-01T16:36:10.463Z,17.92
2022-12-01T16:39:15.038Z,16.01
2022-12-01T16:42:21.691Z,16.22
2022-12-01T16:45:27.328Z,16.72
2022-12-01T16:48:32.160Z,16.94
2022-12-01T16:51:54.626Z,16.33
2022-12-01T16:54:59.477Z,15.74
2022-12-01T16:58:02.318Z,16.04
2022-12-01T17:01:07.059Z,14.27
2022-12-01T17:04:09.871Z,14.61
2022-12-01T17:07:12.653Z,15.70
2022-12-01T17:10:15.125Z,15.66
2022-12-01T17:13:20.063Z,15.81
2022-12-01T17:16:22.360Z,15.95
2022-12-01T17:19:25.234Z,15.57
2022-12-01T17:22:27.538Z,13.52
2022-12-01T17:25:30.454Z,12.69
2022-12-01T17:28:33.129Z,12.40
2022-12-01T17:31:36.273Z,12.09
2022-12-01T17:34:39.063Z,12.14
2022-12-01T17:37:42.086Z,12.69
2022-12-01T17:40:44.141Z,13.14
2022-12-01T17:43:47.018Z,13.78
2022-12-01T17:46:49.191Z,14.32
2022-12-01T17:49:51.727Z,15.10
2022-12-01T17:52:53.874Z,15.46
2022-12-01T17:55:56.375Z,15.58
2022-12-01T17:58:59.293Z,15.24
2022-12-01T18:02:02.133Z,15.02
2022-12-01T18:05:04.835Z,13.71
2022-12-01T18:08:07.734Z,11.99
2022-12-01T18:11:16.094Z,12.10
2022-12-01T18:14:18.714Z,13.36
2022-12-01T18:17:20.833Z,14.57
2022-12-01T18:20:23.350Z,15.26
2022-12-01T18:23:26.004Z,15.64
2022-12-01T18:26:32.135Z,15.44
2022-12-01T18:29:35.282Z,15.39
2022-12-01T18:32:38.207Z,15.88
2022-12-01T18:35:44.678Z,16.32
2022-12-01T18:38:48.733Z,16.69
2022-12-01T18:41:51.198Z,16.84
2022-12-01T18:44:54.759Z,16.72
2022-12-01T18:47:56.866Z,16.93
2022-12-01T18:51:07.907Z,17.00
2022-12-01T18:54:13.753Z,17.13
2022-12-01T18:57:16.474Z,17.16
2022-12-01T19:00:19.825Z,17.26
2022-12-01T19:03:22.335Z,17.27
2022-12-01T19:06:25.811Z,17.33
2022-12-01T19:09:29.555Z,17.35
2022-12-01T19:12:36.411Z,17.38
2022-12-01T19:15:42.045Z,17.40
2022-12-01T19:18:44.741Z,17.44
2022-12-01T19:21:47.368Z,17.43
2022-12-01T19:24:50.869Z,17.45
2022-12-01T19:27:53.414Z,17.45
2022-12-01T19:30:56.014Z,17.45
2022-12-01T19:33:59.195Z,17.50
2022-12-01T19:37:01.727Z,17.48
2022-12-01T19:40:05.036Z,17.43
2022-12-01T19:43:07.170Z,17.50
2022-12-01T19:46:13.291Z,17.53
2022-12-01T19:49:15.414Z,17.64
2022-12-01T19:52:18.064Z,17.70
2022-12-01T19:55:20.124Z,17.64
2022-12-01T19:58:25.798Z,17.92
2022-12-01T20:01:29.112Z,17.88
2022-12-01T20:04:31.975Z,17.84
2022-12-01T20:07:34.225Z,17.77
2022-12-01T20:10:38.421Z,17.84
2022-12-01T20:13:44.984Z,17.92
2022-12-01T20:16:49.277Z,18.04
2022-12-01T20:19:52.379Z,18.10
2022-12-01T20:22:55.743Z,18.22
2022-12-01T20:26:03.742Z,18.28
2022-12-01T20:29:09.695Z,18.33
2022-12-01T20:32:11.746Z,18.36
2022-12-01T20:35:15.876Z,18.36
2022-12-01T20:38:25.837Z,18.37
2022-12-01T20:41:33.663Z,18.39
2022-12-01T20:44:37.171Z,18.29
2022-12-01T20:47:44.216Z,18.12
2022-12-01T20:50:47.199Z,18.04
2022-12-01T20:54:12.351Z,17.53
2022-12-01T20:57:13.032Z,17.53
2022-12-01T21:00:17.411Z,17.74
2022-12-01T21:03:19.606Z,17.74
2022-12-01T21:06:23.051Z,17.68
2022-12-01T21:09:26.598Z,17.67
2022-12-01T21:12:48.453Z,17.71
2022-12-01T21:16:01.669Z,17.89
2022-12-01T21:19:17.085Z,17.92
2022-12-01T21:22:22.388Z,18.01
2022-12-01T21:25:25.757Z,18.15
2022-12-01T21:28:27.954Z,18.22
2022-12-01T21:31:32.557Z,18.29
2022-12-01T21:34:35.958Z,18.43
2022-12-01T21:37:39.755Z,18.55
2022-12-01T21:40:46.997Z,18.43
2022-12-01T21:43:49.719Z,18.37
2022-12-01T21:46:59.271Z,18.13
2022-12-01T21:50:21.979Z,18.37
2022-12-01T21:53:34.152Z,18.32
2022-12-01T21:56:40.645Z,18.10
2022-12-01T21:59:43.242Z,17.91
2022-12-01T22:02:51.855Z,17.84
2022-12-01T22:09:35.274Z,17.73
2022-12-01T22:12:42.560Z,17.88
2022-12-01T22:15:45.817Z,17.79
2022-12-01T22:19:00.414Z,17.98
2022-12-01T22:22:09.391Z,18.09
2022-12-01T22:25:30.287Z,18.10
2022-12-01T22:28:33.042Z,17.70
2022-12-01T22:31:35.349Z,17.68
2022-12-01T22:34:53.443Z,17.51
2022-12-01T22:38:43.663Z,17.57
2022-12-01T22:41:46.084Z,17.79
2022-12-01T22:44:48.426Z,17.88
2022-12-01T22:47:56.369Z,17.94
2022-12-01T22:51:08.447Z,17.79
2022-12-01T22:54:15.096Z,17.70
2022-12-01T22:57:35.889Z,18.35
2022-12-01T23:00:39.492Z,17.45
2022-12-01T23:03:44.973Z,17.07
2022-12-01T23:07:13.090Z,16.84
2022-12-01T23:10:23.828Z,17.14
2022-12-01T23:13:28.742Z,17.02
2022-12-01T23:16:31.399Z,16.26
2022-12-01T23:19:37.946Z,17.63
2022-12-01T23:22:42.131Z,18.21
2022-12-01T23:25:46.986Z,18.47
2022-12-01T23:28:49.738Z,18.60
2022-12-01T23:31:52.717Z,18.74
2022-12-01T23:35:00.495Z,18.87
2022-12-01T23:38:03.421Z,18.63
2022-12-01T23:41:21.514Z,18.46
2022-12-01T23:44:41.324Z,18.47
2022-12-01T23:47:43.869Z,18.83
2022-12-01T23:50:49.757Z,18.97
2022-12-01T23:53:53.883Z,18.86
2022-12-01T23:57:03.748Z,18.94
